Time;durP1;ratioP1;P1;durP2;ratioP2;P2;SDS_P1;SDS_P2;PMS_P1;PMS_P2;Temp;Humidity;BMP_temperature;BMP_pressure;BME280_temperature;BME280_humidity;BME280_pressure;Samples;Min_cycle;Max_cycle;Signal;HPM_P1;HPM_P2
2021/04/29 00:00:44;;;;;;;11.82;10.82;;;12.40;99.90;;;;;;5047388;28;20635;-78
2021/04/29 00:03:11;;;;;;;9.85;9.00;;;12.40;99.90;;;;;;5050250;28;20206;-80
2021/04/29 00:05:38;;;;;;;8.48;7.68;;;12.40;99.90;;;;;;5048409;28;20218;-80
2021/04/29 00:08:05;;;;;;;10.25;9.25;;;12.50;99.90;;;;;;5051852;28;20195;-80
2021/04/29 00:13:02;;;;;;;9.55;8.65;;;12.60;99.90;;;;;;5136150;22;20226;-72
2021/04/29 00:15:29;;;;;;;9.98;9.07;;;12.60;99.90;;;;;;5095416;28;20476;-72
2021/04/29 00:17:56;;;;;;;9.35;8.55;;;12.70;99.90;;;;;;5103546;28;20603;-72
2021/04/29 00:20:24;;;;;;;10.35;9.45;;;12.70;99.90;;;;;;5091901;28;20221;-72
2021/04/29 00:22:51;;;;;;;11.85;10.65;;;12.70;99.90;;;;;;5085637;28;20220;-72
2021/04/29 00:25:18;;;;;;;11.60;10.57;;;12.60;99.90;;;;;;5079955;28;22311;-72
2021/04/29 00:27:45;;;;;;;10.68;9.70;;;12.50;99.90;;;;;;5080526;28;20197;-72
2021/04/29 00:30:14;;;;;;;10.18;9.27;;;12.50;99.90;;;;;;5085265;28;20718;-72
2021/04/29 00:32:40;;;;;;;10.48;9.57;;;12.40;99.90;;;;;;5084475;28;20691;-72
2021/04/29 00:35:08;;;;;;;11.88;10.65;;;12.40;99.90;;;;;;5086744;28;20683;-72
2021/04/29 00:37:35;;;;;;;12.20;11.10;;;12.30;99.90;;;;;;5082071;28;20206;-72
2021/04/29 00:40:02;;;;;;;10.75;9.68;;;12.30;99.90;;;;;;5094545;28;20406;-72
2021/04/29 00:42:28;;;;;;;10.63;9.63;;;12.30;99.90;;;;;;5106427;28;20220;-72
2021/04/29 00:44:55;;;;;;;11.52;10.45;;;12.30;99.90;;;;;;5106929;27;20212;-72
2021/04/29 00:47:22;;;;;;;10.85;9.85;;;12.20;99.90;;;;;;5109093;28;20201;-72
2021/04/29 00:49:51;;;;;;;10.43;9.45;;;12.20;99.90;;;;;;5103643;28;20221;-72
2021/04/29 00:55:40;;;;;;;9.93;9.07;;;12.30;99.90;;;;;;5110909;27;20756;-72
2021/04/29 00:58:06;;;;;;;12.38;11.27;;;12.20;99.90;;;;;;5110749;28;20663;-72
2021/04/29 01:00:34;;;;;;;13.35;12.10;;;12.20;99.90;;;;;;5110036;28;20223;-72
2021/04/29 01:03:12;;;;;;;13.75;12.43;;;12.20;99.90;;;;;;5110968;27;20270;-72
2021/04/29 01:05:48;;;;;;;14.38;12.93;;;12.10;99.90;;;;;;5110794;27;20235;-72
2021/04/29 01:08:20;;;;;;;15.57;14.07;;;12.10;99.90;;;;;;5113515;27;20249;-72
2021/04/29 01:10:49;;;;;;;13.38;12.07;;;12.10;99.90;;;;;;5105338;27;20224;-72
2021/04/29 01:13:22;;;;;;;17.17;15.48;;;12.00;99.90;;;;;;5113297;27;20192;-72
2021/04/29 01:15:50;;;;;;;21.60;19.50;;;12.00;99.90;;;;;;5107004;27;20216;-72
2021/04/29 01:18:22;;;;;;;18.00;16.30;;;12.00;99.90;;;;;;5111049;27;20201;-72
2021/04/29 01:21:01;;;;;;;13.75;12.43;;;11.80;99.90;;;;;;5106938;27;20231;-72
2021/04/29 01:23:36;;;;;;;12.07;10.95;;;11.80;99.90;;;;;;5108530;27;20201;-72
2021/04/29 01:26:09;;;;;;;11.35;10.25;;;11.90;99.90;;;;;;5108026;28;20231;-72
2021/04/29 01:28:39;;;;;;;13.10;11.88;;;12.00;99.90;;;;;;5104852;28;20198;-72
2021/04/29 01:31:07;;;;;;;12.05;10.85;;;12.00;99.90;;;;;;5108208;28;20265;-72
2021/04/29 01:33:35;;;;;;;13.73;12.50;;;12.00;99.90;;;;;;5109962;27;20197;-72
2021/04/29 01:36:04;;;;;;;12.90;11.68;;;12.00;99.90;;;;;;5109634;27;20221;-72
2021/04/29 01:38:31;;;;;;;14.13;12.73;;;12.00;99.90;;;;;;5110157;28;20671;-72
2021/04/29 01:40:58;;;;;;;16.08;14.52;;;11.90;99.90;;;;;;5108176;28;20230;-72
2021/04/29 01:43:25;;;;;;;14.05;12.75;;;11.80;99.90;;;;;;5114171;27;20574;-72
2021/04/29 01:45:53;;;;;;;12.35;11.25;;;11.80;99.90;;;;;;5107858;28;20362;-72
2021/04/29 01:48:20;;;;;;;11.70;10.50;;;11.80;99.90;;;;;;5111631;27;20204;-72
2021/04/29 01:50:46;;;;;;;10.80;9.70;;;11.80;99.90;;;;;;5105858;27;20579;-73
2021/04/29 01:54:09;;;;;;;9.50;8.70;;;11.90;99.90;;;;;;5106597;27;20190;-72
2021/04/29 01:56:36;;;;;;;10.05;9.15;;;12.00;99.90;;;;;;5101510;27;20722;-72
2021/04/29 01:59:04;;;;;;;9.77;8.90;;;12.00;99.90;;;;;;5111570;27;20193;-72
2021/04/29 02:01:32;;;;;;;10.43;9.40;;;12.10;99.90;;;;;;5105037;28;20247;-72
2021/04/29 02:03:59;;;;;;;9.65;8.73;;;12.10;99.90;;;;;;5107513;27;20204;-72
2021/04/29 02:06:59;;;;;;;12.98;11.77;;;12.20;99.90;;;;;;5106737;27;20216;-72
2021/04/29 02:09:25;;;;;;;15.10;13.70;;;12.10;99.90;;;;;;5108184;27;20227;-72
2021/04/29 02:11:57;;;;;;;14.65;13.20;;;12.00;99.90;;;;;;5106867;28;20237;-72
2021/04/29 02:14:29;;;;;;;17.40;15.65;;;11.90;99.90;;;;;;5106745;27;20277;-72
2021/04/29 02:17:01;;;;;;;14.90;13.50;;;11.90;99.90;;;;;;5107945;27;20197;-72
2021/04/29 02:19:28;;;;;;;14.77;13.40;;;11.80;99.90;;;;;;5105421;28;20197;-74
2021/04/29 02:21:56;;;;;;;12.75;11.52;;;11.70;99.90;;;;;;5106783;27;20232;-72
2021/04/29 02:24:23;;;;;;;12.07;11.00;;;11.70;99.90;;;;;;5108862;27;20200;-72
2021/04/29 02:26:51;;;;;;;11.88;10.77;;;11.70;99.90;;;;;;5107372;27;20230;-73
2021/04/29 02:29:19;;;;;;;10.98;9.88;;;11.70;99.90;;;;;;5108055;27;20597;-73
2021/04/29 02:31:47;;;;;;;9.65;8.75;;;11.80;99.90;;;;;;5100336;28;20571;-72
2021/04/29 02:34:16;;;;;;;10.30;9.35;;;11.80;99.90;;;;;;5108272;27;20197;-72
2021/04/29 02:36:42;;;;;;;9.65;8.75;;;11.80;99.90;;;;;;5099451;28;20671;-73
2021/04/29 02:39:09;;;;;;;10.88;9.88;;;11.90;99.90;;;;;;5107296;27;20197;-72
2021/04/29 02:41:36;;;;;;;10.88;9.70;;;11.90;99.90;;;;;;5105343;28;20228;-72
2021/04/29 02:44:04;;;;;;;10.15;9.15;;;11.90;99.90;;;;;;5106345;27;20449;-72
2021/04/29 02:46:31;;;;;;;10.50;8.95;;;11.90;99.90;;;;;;5101653;27;20217;-72
2021/04/29 02:48:58;;;;;;;10.90;9.90;;;11.80;99.90;;;;;;5105123;27;20681;-72
2021/04/29 02:51:25;;;;;;;11.23;10.20;;;11.80;99.90;;;;;;5109346;27;20718;-72
2021/04/29 02:53:52;;;;;;;10.93;9.90;;;11.80;99.90;;;;;;5105006;27;20189;-72
2021/04/29 02:56:18;;;;;;;9.02;8.23;;;11.80;99.90;;;;;;5106035;27;20694;-72
2021/04/29 02:58:46;;;;;;;13.25;11.77;;;11.90;99.90;;;;;;5104678;27;20209;-72
2021/04/29 03:01:13;;;;;;;14.23;12.82;;;11.90;99.90;;;;;;5105682;27;20224;-72
2021/04/29 03:03:40;;;;;;;14.60;13.30;;;11.90;99.90;;;;;;5112075;27;20591;-72
2021/04/29 03:06:07;;;;;;;21.17;19.08;;;11.80;99.90;;;;;;5103282;27;20703;-72
2021/04/29 03:08:35;;;;;;;17.75;16.05;;;11.70;99.90;;;;;;5108899;27;20196;-73
2021/04/29 03:11:04;;;;;;;20.27;18.27;;;11.60;99.90;;;;;;5105188;28;20229;-73
2021/04/29 03:13:31;;;;;;;20.92;18.83;;;11.60;99.90;;;;;;5105915;27;20205;-73
2021/04/29 03:15:57;;;;;;;22.38;20.25;;;11.50;99.90;;;;;;5108507;27;20224;-75
2021/04/29 03:18:24;;;;;;;20.33;17.65;;;11.50;99.90;;;;;;5108468;27;20199;-73
2021/04/29 03:20:51;;;;;;;21.10;19.05;;;11.40;99.90;;;;;;5107401;27;20286;-74
2021/04/29 03:23:17;;;;;;;18.40;16.50;;;11.40;99.90;;;;;;5105900;27;20205;-73
2021/04/29 03:25:45;;;;;;;16.98;15.27;;;11.40;99.90;;;;;;5112414;27;20220;-72
2021/04/29 03:28:12;;;;;;;17.00;15.40;;;11.40;99.90;;;;;;5103679;28;20238;-72
2021/04/29 03:30:39;;;;;;;16.83;15.13;;;11.50;99.90;;;;;;5107959;27;20216;-72
2021/04/29 03:33:06;;;;;;;17.67;15.80;;;11.60;99.90;;;;;;5106745;28;20602;-72
2021/04/29 03:35:33;;;;;;;16.05;14.60;;;11.60;99.90;;;;;;5099843;28;20249;-73
2021/04/29 03:38:00;;;;;;;14.15;12.82;;;11.50;99.90;;;;;;5103451;28;20196;-72
2021/04/29 03:40:26;;;;;;;15.13;13.65;;;11.50;99.90;;;;;;5103852;28;20216;-72
2021/04/29 03:42:54;;;;;;;14.85;13.38;;;11.60;99.90;;;;;;5104382;27;20283;-73
2021/04/29 03:45:21;;;;;;;18.65;16.85;;;11.60;99.90;;;;;;5103377;27;20228;-72
2021/04/29 03:47:47;;;;;;;17.95;16.25;;;11.60;99.90;;;;;;5108033;27;20203;-74
2021/04/29 03:50:14;;;;;;;16.80;15.30;;;11.60;99.90;;;;;;5108280;27;20329;-72
2021/04/29 03:52:40;;;;;;;15.98;14.45;;;11.60;99.90;;;;;;5107423;27;20220;-72
2021/04/29 03:55:09;;;;;;;15.00;13.57;;;11.60;99.90;;;;;;5106607;27;20221;-72
2021/04/29 03:57:35;;;;;;;17.02;15.35;;;11.60;99.90;;;;;;5106179;27;20200;-72
2021/04/29 04:00:04;;;;;;;15.50;14.10;;;11.70;99.90;;;;;;5105779;27;20217;-72
2021/04/29 04:02:31;;;;;;;16.05;14.40;;;11.70;99.90;;;;;;5108345;27;20217;-72
2021/04/29 04:04:57;;;;;;;14.55;13.20;;;11.70;99.90;;;;;;5113863;27;20235;-71
2021/04/29 04:07:24;;;;;;;12.70;11.50;;;11.70;99.90;;;;;;5105642;28;20200;-72
2021/04/29 04:09:50;;;;;;;13.63;12.43;;;11.80;99.90;;;;;;5102617;28;20487;-72
2021/04/29 04:12:17;;;;;;;13.85;12.60;;;11.80;99.90;;;;;;5107531;28;20228;-72
2021/04/29 04:14:43;;;;;;;19.63;17.52;;;11.70;99.90;;;;;;5108448;27;20193;-74
2021/04/29 04:17:11;;;;;;;18.42;16.52;;;11.60;99.90;;;;;;5106302;28;20196;-72
2021/04/29 04:19:37;;;;;;;17.33;15.63;;;11.60;99.90;;;;;;5107129;28;20195;-72
2021/04/29 04:22:04;;;;;;;19.95;17.95;;;11.50;99.90;;;;;;5098485;28;20603;-72
2021/04/29 04:24:31;;;;;;;18.20;16.40;;;11.50;99.90;;;;;;5102818;28;20201;-73
2021/04/29 04:26:57;;;;;;;18.25;16.55;;;11.50;99.90;;;;;;5103937;28;20240;-74
2021/04/29 04:29:24;;;;;;;16.05;14.55;;;11.50;99.90;;;;;;5105063;28;20227;-72
2021/04/29 04:31:51;;;;;;;16.10;14.50;;;11.60;99.90;;;;;;5104102;28;20216;-72
2021/04/29 04:34:18;;;;;;;16.23;14.57;;;11.60;99.90;;;;;;5105760;28;20663;-72
2021/04/29 04:36:45;;;;;;;17.95;16.17;;;11.60;99.90;;;;;;5107028;27;20221;-72
2021/04/29 04:39:11;;;;;;;17.98;16.08;;;11.60;99.90;;;;;;5106096;28;20194;-72
2021/04/29 04:41:38;;;;;;;17.52;15.70;;;11.50;99.90;;;;;;5110726;27;20714;-75
2021/04/29 04:44:05;;;;;;;16.60;15.00;;;11.50;99.90;;;;;;5108990;27;20245;-73
2021/04/29 04:46:31;;;;;;;19.58;17.55;;;11.50;99.90;;;;;;5108876;27;20217;-75
2021/04/29 04:48:58;;;;;;;24.38;21.92;;;11.50;99.90;;;;;;5112456;27;20721;-72
2021/04/29 04:51:25;;;;;;;20.10;18.15;;;11.50;99.90;;;;;;5106493;27;20232;-74
2021/04/29 04:53:52;;;;;;;20.17;18.08;;;11.50;99.90;;;;;;5107437;27;20200;-76
2021/04/29 04:56:19;;;;;;;19.05;17.23;;;11.50;99.90;;;;;;5114107;27;20212;-74
2021/04/29 04:58:45;;;;;;;18.63;16.83;;;11.50;99.90;;;;;;5106370;27;20201;-75
2021/04/29 05:01:12;;;;;;;15.52;14.07;;;11.50;99.90;;;;;;5107771;27;20221;-73
2021/04/29 05:03:39;;;;;;;16.58;14.82;;;11.50;99.90;;;;;;5107093;27;20201;-74
2021/04/29 05:06:05;;;;;;;17.90;16.20;;;11.50;99.90;;;;;;5105185;28;20233;-73
2021/04/29 05:08:33;;;;;;;19.88;17.90;;;11.50;99.90;;;;;;5107920;28;20196;-75
2021/04/29 05:11:00;;;;;;;20.50;18.58;;;11.50;99.90;;;;;;5106656;28;20221;-73
2021/04/29 05:13:26;;;;;;;20.80;18.70;;;11.50;99.90;;;;;;5106141;27;20682;-75
2021/04/29 05:15:53;;;;;;;22.27;19.88;;;11.50;99.90;;;;;;5101650;28;20588;-72
2021/04/29 05:18:19;;;;;;;26.45;23.73;;;11.40;99.90;;;;;;5105307;28;20357;-75
2021/04/29 05:20:46;;;;;;;24.35;21.92;;;11.40;99.90;;;;;;5106734;28;20222;-73
2021/04/29 05:23:13;;;;;;;23.38;20.92;;;11.40;99.90;;;;;;5105474;28;20223;-75
2021/04/29 05:25:41;;;;;;;23.65;21.20;;;11.40;99.90;;;;;;5107472;27;20224;-73
2021/04/29 05:28:07;;;;;;;21.80;19.67;;;11.40;99.90;;;;;;5105937;28;20687;-73
2021/04/29 05:30:34;;;;;;;19.45;17.55;;;11.40;99.90;;;;;;5108123;28;20602;-74
2021/04/29 05:33:00;;;;;;;19.33;17.42;;;11.40;99.90;;;;;;5105609;28;20210;-73
2021/04/29 05:35:27;;;;;;;23.75;21.27;;;11.50;99.90;;;;;;5112637;27;20224;-77
2021/04/29 05:37:54;;;;;;;20.52;18.48;;;11.50;99.90;;;;;;5101571;28;20668;-73
2021/04/29 05:40:20;;;;;;;19.17;17.23;;;11.50;99.90;;;;;;5105072;28;20294;-72
2021/04/29 05:42:48;;;;;;;21.15;18.98;;;11.50;99.90;;;;;;5105757;28;20219;-74
2021/04/29 05:45:15;;;;;;;24.77;22.27;;;11.50;99.90;;;;;;5107935;27;20217;-72
2021/04/29 05:47:42;;;;;;;23.05;20.63;;;11.60;99.90;;;;;;5110141;27;20708;-75
2021/04/29 05:50:10;;;;;;;20.90;18.85;;;11.60;99.90;;;;;;5101835;28;20285;-76
2021/04/29 05:52:37;;;;;;;21.40;19.20;;;11.60;99.90;;;;;;5107741;28;20342;-76
2021/04/29 05:55:05;;;;;;;21.55;19.42;;;11.60;99.90;;;;;;5114968;27;20197;-73
2021/04/29 05:57:31;;;;;;;18.58;16.83;;;11.60;99.90;;;;;;5115295;27;20544;-72
2021/04/29 05:59:59;;;;;;;18.60;16.65;;;11.70;99.90;;;;;;5104206;28;20205;-72
2021/04/29 06:02:25;;;;;;;19.30;17.38;;;11.80;99.90;;;;;;5105544;28;20227;-72
2021/04/29 06:04:52;;;;;;;23.30;21.00;;;11.90;99.90;;;;;;5111215;27;20224;-72
2021/04/29 06:07:18;;;;;;;23.08;20.77;;;11.90;99.90;;;;;;5108984;27;20690;-73
2021/04/29 06:09:45;;;;;;;22.42;20.13;;;11.90;99.90;;;;;;5114108;27;20888;-74
2021/04/29 06:12:12;;;;;;;27.52;24.73;;;11.80;99.90;;;;;;5113143;22;20597;-80
2021/04/29 06:14:38;;;;;;;27.67;24.77;;;11.80;99.90;;;;;;5051166;28;20206;-80
2021/04/29 06:17:06;;;;;;;23.48;21.02;;;11.70;99.90;;;;;;5085284;28;20218;-80
2021/04/29 06:19:33;;;;;;;24.70;22.13;;;11.60;99.90;;;;;;5065737;28;20198;-81
2021/04/29 06:21:59;;;;;;;22.33;20.10;;;11.70;99.90;;;;;;5067198;28;20224;-82
2021/04/29 06:24:26;;;;;;;21.67;19.48;;;11.70;99.90;;;;;;5078454;28;20718;-81
2021/04/29 06:26:52;;;;;;;19.63;17.70;;;11.70;99.90;;;;;;5061187;28;20222;-80
2021/04/29 06:29:19;;;;;;;18.65;16.83;;;11.70;99.90;;;;;;5061513;28;20789;-81
2021/04/29 06:31:46;;;;;;;24.85;22.35;;;11.90;99.90;;;;;;5080924;28;20230;-79
2021/04/29 06:34:14;;;;;;;21.23;19.20;;;12.00;99.90;;;;;;5078511;28;20263;-81
2021/04/29 06:36:43;;;;;;;20.48;18.48;;;12.10;99.90;;;;;;5077314;28;20221;-81
2021/04/29 06:39:11;;;;;;;18.23;16.48;;;12.20;99.90;;;;;;5074535;28;20637;-80
2021/04/29 06:41:37;;;;;;;18.58;16.77;;;12.30;99.90;;;;;;5066054;28;20576;-78
2021/04/29 06:44:04;;;;;;;19.63;17.83;;;12.40;99.90;;;;;;5063836;28;20193;-81
2021/04/29 06:46:31;;;;;;;20.02;18.02;;;12.40;99.90;;;;;;5071177;28;20704;-82
2021/04/29 06:48:57;;;;;;;21.55;19.55;;;12.40;99.90;;;;;;5063423;28;20214;-77
2021/04/29 06:51:25;;;;;;;24.85;22.35;;;12.40;99.90;;;;;;5059643;28;20234;-81
2021/04/29 06:53:52;;;;;;;26.58;23.90;;;12.40;99.90;;;;;;5061957;28;20282;-78
2021/04/29 06:56:18;;;;;;;25.05;22.55;;;12.30;99.90;;;;;;5059365;28;20719;-79
2021/04/29 06:58:45;;;;;;;26.35;23.67;;;12.30;99.90;;;;;;5066193;28;20660;-80
2021/04/29 07:01:12;;;;;;;25.30;22.73;;;12.30;99.90;;;;;;5069825;28;20714;-80
2021/04/29 07:03:38;;;;;;;27.00;24.30;;;12.30;99.90;;;;;;5065198;28;20221;-80
2021/04/29 07:06:05;;;;;;;24.25;21.92;;;12.20;99.90;;;;;;5068098;28;20229;-81
2021/04/29 07:08:33;;;;;;;20.58;18.58;;;12.20;99.90;;;;;;5062182;28;20210;-81
2021/04/29 07:10:59;;;;;;;20.02;18.13;;;12.30;99.90;;;;;;5070151;28;20221;-80
2021/04/29 07:13:27;;;;;;;20.02;18.02;;;12.40;99.90;;;;;;5064899;28;20225;-79
2021/04/29 07:15:54;;;;;;;20.00;18.10;;;12.50;99.90;;;;;;5063599;28;20293;-80
2021/04/29 07:18:21;;;;;;;21.23;19.15;;;12.50;99.90;;;;;;5063669;28;20216;-81
2021/04/29 07:20:48;;;;;;;18.05;16.35;;;12.50;99.90;;;;;;5071686;28;20221;-79
2021/04/29 07:23:15;;;;;;;19.98;18.05;;;12.60;99.90;;;;;;5064841;28;20214;-78
2021/04/29 07:25:43;;;;;;;23.73;21.35;;;12.70;99.90;;;;;;5063217;28;20628;-77
2021/04/29 07:28:10;;;;;;;22.33;20.13;;;12.70;99.90;;;;;;5065566;28;20255;-78
2021/04/29 07:30:39;;;;;;;22.13;19.95;;;12.70;99.90;;;;;;5055114;28;20632;-77
2021/04/29 07:33:06;;;;;;;19.45;17.50;;;12.70;99.90;;;;;;5073309;28;20667;-80
2021/04/29 07:35:32;;;;;;;19.08;17.27;;;12.80;99.90;;;;;;5062609;28;20226;-81
2021/04/29 07:37:59;;;;;;;19.50;17.70;;;12.90;99.90;;;;;;5068906;28;20202;-79
2021/04/29 07:40:26;;;;;;;21.50;19.25;;;13.00;99.90;;;;;;5061934;28;20230;-78
2021/04/29 07:42:53;;;;;;;23.10;20.90;;;12.90;99.90;;;;;;5063875;28;20221;-81
2021/04/29 07:45:20;;;;;;;24.40;22.00;;;12.90;99.90;;;;;;5060689;28;20645;-79
2021/04/29 07:47:46;;;;;;;26.92;24.27;;;12.90;99.90;;;;;;5067365;28;20198;-81
2021/04/29 07:50:14;;;;;;;24.85;22.33;;;12.80;99.90;;;;;;5067899;28;20829;-81
2021/04/29 07:52:41;;;;;;;23.10;20.90;;;12.80;99.90;;;;;;5070359;28;20703;-80
2021/04/29 07:55:09;;;;;;;24.17;21.83;;;12.80;99.90;;;;;;5065124;28;20193;-81
2021/04/29 07:57:36;;;;;;;23.00;20.80;;;12.90;99.90;;;;;;5064432;28;20202;-80
2021/04/29 08:00:07;;;;;;;22.73;20.52;;;13.00;99.90;;;;;;5057754;28;20720;-81
2021/04/29 08:02:33;;;;;;;23.30;20.95;;;13.10;99.90;;;;;;5059048;28;20228;-79
2021/04/29 08:05:00;;;;;;;23.70;21.40;;;13.10;99.90;;;;;;5070235;28;20584;-80
2021/04/29 08:07:29;;;;;;;25.75;23.20;;;13.10;99.90;;;;;;5055991;28;20915;-80
2021/04/29 08:09:56;;;;;;;24.80;22.38;;;13.00;99.90;;;;;;5065900;28;20214;-79
2021/04/29 08:12:22;;;;;;;23.27;20.88;;;12.80;99.90;;;;;;5064070;28;20229;-80
2021/04/29 08:14:49;;;;;;;23.02;20.73;;;12.70;99.90;;;;;;5062940;28;20205;-81
2021/04/29 08:17:16;;;;;;;20.55;18.48;;;12.70;99.90;;;;;;5060048;28;20606;-78
2021/04/29 08:19:44;;;;;;;18.48;16.73;;;12.70;99.90;;;;;;5067009;28;20190;-79
2021/04/29 08:22:11;;;;;;;20.83;18.70;;;12.70;99.90;;;;;;5045894;28;21404;-79
2021/04/29 08:24:38;;;;;;;19.35;17.38;;;12.80;99.90;;;;;;5042622;28;20376;-80
2021/04/29 08:27:05;;;;;;;22.88;20.45;;;12.80;99.90;;;;;;5049308;28;20599;-79
2021/04/29 08:29:31;;;;;;;23.40;21.15;;;12.90;99.90;;;;;;5055901;28;20425;-78
2021/04/29 08:31:59;;;;;;;19.15;17.33;;;12.80;99.90;;;;;;5045199;28;20226;-81
2021/04/29 08:34:27;;;;;;;19.52;17.60;;;12.80;99.90;;;;;;5040053;28;20199;-79
2021/04/29 08:36:53;;;;;;;18.38;16.50;;;12.80;99.90;;;;;;5034621;28;20721;-79
2021/04/29 08:39:20;;;;;;;17.85;16.10;;;12.90;99.90;;;;;;5035472;28;20657;-82
2021/04/29 08:41:47;;;;;;;17.75;16.15;;;13.00;99.90;;;;;;5040648;28;20731;-78
2021/04/29 08:44:13;;;;;;;18.70;16.88;;;13.00;99.90;;;;;;5037385;28;20673;-77
2021/04/29 08:46:41;;;;;;;18.98;17.17;;;13.10;99.90;;;;;;5045339;28;20218;-81
2021/04/29 08:49:08;;;;;;;18.27;16.58;;;13.10;99.90;;;;;;5042245;28;20190;-79
2021/04/29 08:51:37;;;;;;;16.42;14.82;;;13.10;99.90;;;;;;5046431;28;20222;-78
2021/04/29 08:54:05;;;;;;;16.55;14.98;;;13.20;99.90;;;;;;5036694;28;20206;-80
2021/04/29 08:56:31;;;;;;;15.00;13.48;;;13.20;99.90;;;;;;5037100;28;20222;-79
2021/04/29 08:58:59;;;;;;;14.88;13.48;;;13.30;99.90;;;;;;5046765;28;20290;-80
2021/04/29 09:01:27;;;;;;;14.35;12.85;;;13.40;99.90;;;;;;5044986;28;20210;-79
2021/04/29 09:03:53;;;;;;;14.85;13.23;;;13.50;99.90;;;;;;5040165;28;20206;-79
2021/04/29 09:06:32;;;;;;;14.02;12.73;;;13.50;99.90;;;;;;5041549;28;20724;-80
2021/04/29 09:09:00;;;;;;;13.45;12.02;;;13.40;99.90;;;;;;5052826;28;20198;-81
2021/04/29 09:11:27;;;;;;;13.48;12.27;;;13.40;99.90;;;;;;5047124;28;20252;-80
2021/04/29 09:13:55;;;;;;;13.32;12.07;;;13.30;99.90;;;;;;5038031;28;20198;-82
2021/04/29 09:16:22;;;;;;;12.07;11.07;;;13.40;99.90;;;;;;5036851;28;20228;-77
2021/04/29 09:18:49;;;;;;;12.45;11.35;;;13.50;99.90;;;;;;5037654;28;20218;-78
2021/04/29 09:21:16;;;;;;;14.52;13.13;;;13.50;99.90;;;;;;5036757;28;20215;-78
2021/04/29 09:23:45;;;;;;;14.60;13.25;;;13.40;99.90;;;;;;5041734;28;20296;-79
2021/04/29 09:26:14;;;;;;;14.38;13.05;;;13.40;99.90;;;;;;5044453;28;20223;-79
2021/04/29 09:28:42;;;;;;;13.55;12.35;;;13.40;99.90;;;;;;5039066;28;20200;-78
2021/04/29 09:31:12;;;;;;;11.90;10.80;;;13.30;99.90;;;;;;5032314;28;20604;-76
2021/04/29 09:33:40;;;;;;;11.95;10.90;;;13.40;99.90;;;;;;5044481;28;20518;-81
2021/04/29 09:36:08;;;;;;;11.63;10.52;;;13.50;99.90;;;;;;5056464;28;20229;-78
2021/04/29 09:38:37;;;;;;;12.00;10.90;;;13.50;99.90;;;;;;5031401;28;20210;-80
2021/04/29 09:41:06;;;;;;;13.15;11.95;;;13.40;99.90;;;;;;5037064;28;20227;-80
2021/04/29 09:43:33;;;;;;;14.00;12.68;;;13.40;99.90;;;;;;5030972;28;20728;-80
2021/04/29 09:46:02;;;;;;;11.80;10.70;;;13.40;99.90;;;;;;5032190;28;20297;-77
2021/04/29 09:48:37;;;;;;;11.50;10.50;;;13.50;99.90;;;;;;5032892;28;20654;-79
2021/04/29 09:51:06;;;;;;;11.48;10.48;;;13.60;99.90;;;;;;5035523;28;21220;-77
2021/04/29 09:53:43;;;;;;;12.63;11.38;;;13.70;99.90;;;;;;5046126;28;20225;-77
2021/04/29 09:56:12;;;;;;;11.32;10.32;;;13.90;99.90;;;;;;5041151;28;20223;-76
2021/04/29 09:58:45;;;;;;;10.38;9.48;;;14.10;99.90;;;;;;5046866;28;20225;-78
2021/04/29 10:01:12;;;;;;;10.02;9.13;;;14.10;99.90;;;;;;5049140;28;20217;-77
2021/04/29 10:03:41;;;;;;;9.88;8.98;;;14.20;99.90;;;;;;5043208;28;20578;-78
2021/04/29 10:06:12;;;;;;;10.43;9.52;;;14.30;99.90;;;;;;5045654;28;20219;-77
2021/04/29 10:08:39;;;;;;;9.77;8.95;;;14.30;99.90;;;;;;5046368;28;20669;-77
2021/04/29 10:11:06;;;;;;;9.05;8.25;;;14.40;99.90;;;;;;5045866;28;20223;-78
2021/04/29 10:13:37;;;;;;;7.97;7.32;;;14.50;99.90;;;;;;5035807;28;20957;-80
2021/04/29 10:16:05;;;;;;;8.63;7.90;;;14.60;99.90;;;;;;5053640;28;20217;-81
2021/04/29 10:18:32;;;;;;;7.20;6.60;;;14.80;99.90;;;;;;5051765;28;20199;-79
2021/04/29 10:21:00;;;;;;;7.97;7.28;;;15.00;99.90;;;;;;5044125;28;20225;-80
2021/04/29 10:23:27;;;;;;;7.47;6.78;;;15.20;99.90;;;;;;5041054;28;20219;-78
2021/04/29 10:25:55;;;;;;;6.90;6.40;;;15.20;99.90;;;;;;5043198;28;20202;-80
2021/04/29 10:28:37;;;;;;;6.93;6.32;;;15.30;99.90;;;;;;5045664;28;20195;-79
2021/04/29 10:31:19;;;;;;;6.35;5.85;;;15.60;99.90;;;;;;5043925;28;20232;-78
2021/04/29 10:33:53;;;;;;;5.78;5.25;;;15.90;99.90;;;;;;5045058;28;20247;-76
2021/04/29 10:36:20;;;;;;;6.65;6.15;;;16.00;99.90;;;;;;5047056;28;20222;-81
2021/04/29 10:38:47;;;;;;;7.35;6.75;;;16.30;99.90;;;;;;5047405;28;20195;-79
2021/04/29 10:41:20;;;;;;;5.60;5.13;;;16.70;99.90;;;;;;5049903;28;20230;-80
2021/04/29 10:43:47;;;;;;;5.88;5.38;;;16.90;99.90;;;;;;5052859;28;20202;-77
2021/04/29 10:46:26;;;;;;;5.20;4.80;;;17.00;99.90;;;;;;5045770;28;20226;-76
2021/04/29 10:48:56;;;;;;;4.63;4.30;;;17.00;99.90;;;;;;5036775;28;20203;-79
2021/04/29 10:51:30;;;;;;;4.88;4.47;;;17.20;99.90;;;;;;5044518;28;20330;-78
2021/04/29 10:54:11;;;;;;;4.57;4.28;;;17.40;99.90;;;;;;5049163;28;20201;-79
2021/04/29 10:56:38;;;;;;;3.22;3.03;;;17.50;99.90;;;;;;5048730;28;20737;-77
2021/04/29 10:59:13;;;;;;;4.53;4.13;;;17.50;99.90;;;;;;5053674;28;20248;-80
2021/04/29 11:01:45;;;;;;;4.97;4.57;;;17.70;99.90;;;;;;5045597;28;20228;-80
2021/04/29 11:04:19;;;;;;;4.90;4.50;;;17.50;99.90;;;;;;5049035;28;20202;-78
2021/04/29 11:06:47;;;;;;;4.80;4.40;;;17.40;99.90;;;;;;5041133;28;20221;-79
2021/04/29 11:09:21;;;;;;;6.75;6.15;;;17.30;99.90;;;;;;5045772;28;20620;-80
2021/04/29 11:11:59;;;;;;;6.70;6.20;;;17.30;99.90;;;;;;5047376;28;20290;-80
2021/04/29 11:14:36;;;;;;;5.90;5.40;;;17.20;99.90;;;;;;5048813;28;20221;-79
2021/04/29 11:17:04;;;;;;;4.95;4.45;;;17.00;99.90;;;;;;5051269;28;20764;-81
2021/04/29 11:19:39;;;;;;;4.68;4.28;;;16.90;99.90;;;;;;5049961;28;20202;-79
2021/04/29 11:22:08;;;;;;;3.80;3.50;;;17.20;99.90;;;;;;5050964;28;20233;-79
2021/04/29 11:24:40;;;;;;;3.50;3.20;;;17.40;99.90;;;;;;5054190;28;20198;-80
2021/04/29 11:27:22;;;;;;;3.47;3.17;;;17.50;99.90;;;;;;5048564;28;20221;-80
2021/04/29 11:29:49;;;;;;;3.50;3.20;;;17.60;99.90;;;;;;5043289;28;20735;-81
2021/04/29 11:32:19;;;;;;;4.53;4.13;;;17.60;99.90;;;;;;5054814;28;20319;-79
2021/04/29 11:34:48;;;;;;;3.60;3.30;;;17.40;99.90;;;;;;5048150;28;20237;-80
2021/04/29 11:37:15;;;;;;;3.40;3.10;;;17.50;99.90;;;;;;5040227;28;20276;-80
2021/04/29 11:39:43;;;;;;;4.45;3.03;;;17.50;99.90;;;;;;5046568;28;20202;-80
2021/04/29 11:42:11;;;;;;;4.22;3.67;;;17.90;99.90;;;;;;5047327;28;20225;-80
2021/04/29 11:44:39;;;;;;;4.03;3.72;;;18.10;99.90;;;;;;5048286;28;20207;-80
2021/04/29 11:47:14;;;;;;;3.38;3.05;;;18.40;99.90;;;;;;5045391;28;20314;-80
2021/04/29 11:49:42;;;;;;;3.25;2.95;;;18.60;99.90;;;;;;5049805;28;20194;-80
2021/04/29 11:52:09;;;;;;;3.55;3.25;;;18.60;99.90;;;;;;5047891;28;20218;-80
2021/04/29 11:54:46;;;;;;;3.15;2.88;;;18.50;99.90;;;;;;5050692;28;20688;-80
2021/04/29 11:57:14;;;;;;;3.45;3.15;;;18.40;99.90;;;;;;5035804;28;20271;-81
2021/04/29 11:59:40;;;;;;;3.10;2.90;;;18.40;99.90;;;;;;5045597;28;20218;-80
2021/04/29 12:02:07;;;;;;;2.92;2.72;;;18.40;99.90;;;;;;5043092;28;20250;-80
2021/04/29 12:04:34;;;;;;;2.38;2.20;;;18.30;99.90;;;;;;5050238;28;20228;-79
2021/04/29 12:07:03;;;;;;;3.15;2.90;;;18.40;99.90;;;;;;5043285;28;20218;-80
2021/04/29 12:09:30;;;;;;;2.95;2.70;;;18.50;99.90;;;;;;5052973;28;20202;-79
2021/04/29 12:12:10;;;;;;;3.33;3.03;;;18.50;99.90;;;;;;5092949;22;20242;-73
2021/04/29 12:14:36;;;;;;;2.45;2.25;;;18.30;99.90;;;;;;5033696;28;20416;-71
2021/04/29 12:17:05;;;;;;;3.53;2.70;;;18.40;99.90;;;;;;5041080;28;20596;-71
2021/04/29 12:19:34;;;;;;;3.10;2.90;;;18.40;99.90;;;;;;5045259;28;20195;-71
2021/04/29 12:22:02;;;;;;;2.75;2.55;;;18.20;99.90;;;;;;5046052;28;20219;-71
2021/04/29 12:24:39;;;;;;;2.83;2.58;;;18.20;99.90;;;;;;5054859;28;20672;-71
2021/04/29 12:27:12;;;;;;;3.30;3.00;;;18.00;99.90;;;;;;5060951;28;20388;-71
2021/04/29 12:29:39;;;;;;;2.70;2.50;;;17.90;99.90;;;;;;5056256;28;20631;-71
2021/04/29 12:32:05;;;;;;;2.60;2.40;;;17.80;99.90;;;;;;5059773;28;20232;-71
2021/04/29 12:34:32;;;;;;;2.83;2.63;;;17.70;99.90;;;;;;5056974;28;20213;-71
2021/04/29 12:37:03;;;;;;;2.90;2.70;;;17.70;99.90;;;;;;5056886;28;20790;-71
2021/04/29 12:39:33;;;;;;;3.35;3.05;;;17.70;99.90;;;;;;5057878;28;20638;-71
2021/04/29 12:42:01;;;;;;;3.38;3.05;;;17.60;99.90;;;;;;5058452;28;20619;-71
2021/04/29 12:44:37;;;;;;;3.88;3.42;;;17.60;99.90;;;;;;5060040;28;20210;-71